Time;durP1;ratioP1;P1;durP2;ratioP2;P2;SDS_P1;SDS_P2;PMS_P1;PMS_P2;Temp;Humidity;BMP_temperature;BMP_pressure;BME280_temperature;BME280_humidity;BME280_pressure;Samples;Min_cycle;Max_cycle;Signal;HPM_P1;HPM_P2
2022/04/04 00:01:20;;;;;;;;;;;1.20;99.90;;;;;;5087164;28;19964;-55
2022/04/04 00:03:47;;;;;;;;;;;1.30;99.90;;;;;;5093542;28;19924;-55
2022/04/04 00:06:18;;;;;;;;;;;1.50;99.90;;;;;;5094320;28;20000;-55
2022/04/04 00:08:45;;;;;;;;;;;1.50;99.90;;;;;;5084402;28;19968;-55
2022/04/04 00:11:12;;;;;;;;;;;1.70;99.90;;;;;;5089844;28;19977;-55
2022/04/04 00:13:39;;;;;;;;;;;1.60;99.90;;;;;;5089457;28;19932;-56
2022/04/04 00:16:08;;;;;;;;;;;1.50;99.90;;;;;;5091463;28;20290;-56
2022/04/04 00:18:35;;;;;;;;;;;1.30;99.90;;;;;;5084000;28;20308;-55
2022/04/04 00:21:04;;;;;;;;;;;1.30;99.90;;;;;;5090292;28;20007;-55
2022/04/04 00:23:32;;;;;;;;;;;1.40;99.90;;;;;;5073178;28;20032;-56
2022/04/04 00:25:59;;;;;;;;;;;1.20;99.90;;;;;;5073204;28;19994;-55
2022/04/04 00:28:26;;;;;;;;;;;1.20;99.90;;;;;;5081038;28;20003;-55
2022/04/04 00:30:53;;;;;;;;;;;1.10;99.90;;;;;;5092451;28;19932;-56
2022/04/04 00:33:19;;;;;;;;;;;1.00;99.90;;;;;;5085983;28;19939;-56
2022/04/04 00:35:47;;;;;;;;;;;1.00;99.90;;;;;;5084068;28;19970;-56
2022/04/04 00:38:14;;;;;;;;;;;0.90;99.90;;;;;;5093291;28;19925;-55
2022/04/04 00:40:43;;;;;;;;;;;0.90;99.90;;;;;;5092349;28;19924;-56
2022/04/04 00:43:10;;;;;;;;;;;0.80;99.90;;;;;;5082584;28;20007;-56
2022/04/04 00:45:36;;;;;;;;;;;0.70;99.90;;;;;;5092927;28;19987;-55
2022/04/04 00:48:03;;;;;;;;;;;0.70;99.90;;;;;;5095407;28;20389;-56
2022/04/04 00:50:30;;;;;;;;;;;0.70;99.90;;;;;;5086543;28;19973;-56
2022/04/04 00:52:57;;;;;;;;;;;0.70;99.90;;;;;;5090724;28;19974;-55
2022/04/04 00:55:24;;;;;;;;;;;0.70;99.90;;;;;;5093066;28;19924;-55
2022/04/04 00:57:55;;;;;;;;;;;0.70;99.90;;;;;;5092125;28;19928;-55
2022/04/04 01:00:22;;;;;;;;;;;0.60;99.90;;;;;;5095391;28;19924;-56
2022/04/04 01:02:48;;;;;;;;;;;0.70;99.90;;;;;;5096539;28;19973;-55
2022/04/04 01:05:15;;;;;;;;;;;0.70;99.90;;;;;;5094450;28;19928;-56
2022/04/04 01:07:42;;;;;;;;;;;0.80;99.90;;;;;;5092331;28;19924;-56
2022/04/04 01:10:09;;;;;;;;;;;0.80;99.90;;;;;;5092305;28;19972;-56
2022/04/04 01:12:37;;;;;;;;;;;0.80;99.90;;;;;;5090887;28;19923;-56
2022/04/04 01:15:05;;;;;;;;;;;0.90;99.90;;;;;;5092403;28;19928;-56
2022/04/04 01:17:32;;;;;;;;;;;0.90;99.90;;;;;;5092620;28;19924;-56
2022/04/04 01:19:59;;;;;;;;;;;0.90;99.90;;;;;;5091066;28;20329;-56
2022/04/04 01:22:26;;;;;;;;;;;1.00;99.90;;;;;;5092143;28;20378;-57
2022/04/04 01:24:54;;;;;;;;;;;1.00;99.90;;;;;;5092212;28;19940;-57
2022/04/04 01:27:21;;;;;;;;;;;1.00;99.90;;;;;;5091838;28;20309;-56
2022/04/04 01:29:48;;;;;;;;;;;1.10;99.90;;;;;;5091485;28;20019;-57
2022/04/04 01:32:14;;;;;;;;;;;1.20;99.90;;;;;;5089554;28;19930;-57
2022/04/04 01:34:41;;;;;;;;;;;1.20;99.90;;;;;;5083700;28;19928;-56
2022/04/04 01:37:08;;;;;;;;;;;1.20;99.90;;;;;;5084227;28;19996;-56
2022/04/04 01:39:35;;;;;;;;;;;1.20;99.90;;;;;;5080875;28;19925;-56
2022/04/04 01:42:04;;;;;;;;;;;1.20;99.90;;;;;;5091074;28;20385;-57
2022/04/04 01:44:31;;;;;;;;;;;1.10;99.90;;;;;;5092265;28;19928;-57
2022/04/04 01:46:58;;;;;;;;;;;1.00;99.90;;;;;;5089905;28;19912;-56
2022/04/04 01:49:25;;;;;;;;;;;0.90;99.90;;;;;;5085220;28;19932;-56
2022/04/04 01:51:51;;;;;;;;;;;0.90;99.90;;;;;;5083675;28;19924;-57
2022/04/04 01:54:18;;;;;;;;;;;0.90;99.90;;;;;;5092245;28;19924;-57
2022/04/04 01:56:45;;;;;;;;;;;0.90;99.90;;;;;;5083660;28;19924;-57
2022/04/04 01:59:13;;;;;;;;;;;0.90;99.90;;;;;;5088226;28;20368;-57
2022/04/04 02:01:41;;;;;;;;;;;0.80;99.90;;;;;;5088639;28;19925;-57
2022/04/04 02:04:09;;;;;;;;;;;0.80;99.90;;;;;;5092811;28;19935;-56
2022/04/04 02:06:36;;;;;;;;;;;0.80;99.90;;;;;;5092819;28;19931;-57
2022/04/04 02:09:03;;;;;;;;;;;0.70;99.90;;;;;;5091973;28;19977;-56
2022/04/04 02:11:30;;;;;;;;;;;0.70;99.90;;;;;;5092527;28;20254;-56
2022/04/04 02:13:58;;;;;;;;;;;0.70;99.90;;;;;;5092719;28;19982;-56
2022/04/04 02:16:28;;;;;;;;;;;0.60;99.90;;;;;;5090725;28;19963;-56
2022/04/04 02:18:55;;;;;;;;;;;0.60;99.90;;;;;;5078362;28;20340;-56
2022/04/04 02:21:21;;;;;;;;;;;0.60;99.90;;;;;;5089993;28;19939;-57
2022/04/04 02:23:48;;;;;;;;;;;0.70;99.90;;;;;;5085839;28;19924;-57
2022/04/04 02:26:15;;;;;;;;;;;0.60;99.90;;;;;;5086818;28;19924;-56
2022/04/04 02:28:42;;;;;;;;;;;0.60;99.90;;;;;;5087494;28;19932;-57
2022/04/04 02:31:08;;;;;;;;;;;0.60;99.90;;;;;;5090020;28;19932;-57
2022/04/04 02:33:37;;;;;;;;;;;0.60;99.90;;;;;;5084531;28;19940;-59
2022/04/04 02:36:04;;;;;;;;;;;0.70;99.90;;;;;;5091597;28;19992;-57
2022/04/04 02:38:30;;;;;;;;;;;0.70;99.90;;;;;;5085569;28;19932;-57
2022/04/04 02:40:58;;;;;;;;;;;0.80;99.90;;;;;;5091789;28;19928;-56
2022/04/04 02:43:25;;;;;;;;;;;0.80;99.90;;;;;;5093353;28;19924;-56
2022/04/04 02:45:52;;;;;;;;;;;0.90;99.90;;;;;;5093467;28;19977;-56
2022/04/04 02:48:19;;;;;;;;;;;0.90;99.90;;;;;;5097140;28;19928;-56
2022/04/04 02:50:48;;;;;;;;;;;0.80;99.90;;;;;;5098369;28;19927;-56
2022/04/04 02:53:15;;;;;;;;;;;0.90;99.90;;;;;;5095645;28;19977;-56
2022/04/04 02:58:26;;;;;;;;;;;0.90;99.90;;;;;;5095697;28;20016;-56
2022/04/04 03:00:53;;;;;;;;;;;0.90;99.90;;;;;;5095334;28;20370;-56
2022/04/04 03:03:20;;;;;;;;;;;0.90;99.90;;;;;;5095456;28;19931;-56
2022/04/04 03:05:48;;;;;;;;;;;0.90;99.90;;;;;;5094671;28;19970;-56
2022/04/04 03:08:15;;;;;;;;;;;0.90;99.90;;;;;;5094466;28;19924;-59
2022/04/04 03:10:42;;;;;;;;;;;0.90;99.90;;;;;;5094071;28;19928;-56
2022/04/04 03:13:09;;;;;;;;;;;0.90;99.90;;;;;;5092554;28;19976;-56
2022/04/04 03:15:37;;;;;;;;;;;0.80;99.90;;;;;;5094861;28;20305;-56
2022/04/04 03:18:04;;;;;;;;;;;0.80;99.90;;;;;;5075328;28;19947;-56
2022/04/04 03:20:31;;;;;;;;;;;1.00;99.90;;;;;;5089566;28;19935;-56
2022/04/04 03:23:00;;;;;;;;;;;1.20;99.90;;;;;;5094750;28;19974;-57
2022/04/04 03:25:27;;;;;;;;;;;1.10;99.90;;;;;;5094457;28;20390;-56
2022/04/04 03:27:54;;;;;;;;;;;1.10;99.90;;;;;;5095099;28;19971;-56
2022/04/04 03:30:23;;;;;;;;;;;1.20;99.90;;;;;;5093731;28;20020;-56
2022/04/04 03:32:51;;;;;;;;;;;1.10;99.90;;;;;;5083159;28;19928;-56
2022/04/04 03:35:19;;;;;;;;;;;1.00;99.90;;;;;;5092982;28;19971;-57
2022/04/04 03:37:46;;;;;;;;;;;0.90;99.90;;;;;;5093864;28;19924;-57
2022/04/04 03:40:16;;;;;;;;;;;0.90;99.90;;;;;;5093090;28;19938;-57
2022/04/04 03:42:44;;;;;;;;;;;0.80;99.90;;;;;;5076796;28;19925;-56
2022/04/04 03:45:12;;;;;;;;;;;0.70;99.90;;;;;;5075212;28;20348;-57
2022/04/04 03:47:39;;;;;;;;;;;0.80;99.90;;;;;;5075104;28;19931;-57
2022/04/04 03:50:06;;;;;;;;;;;0.70;99.90;;;;;;5074699;28;19925;-57
2022/04/04 03:52:34;;;;;;;;;;;0.70;99.90;;;;;;5078258;28;19924;-57
2022/04/04 03:55:01;;;;;;;;;;;0.80;99.90;;;;;;5092723;28;19924;-57
2022/04/04 03:57:29;;;;;;;;;;;0.70;99.90;;;;;;5084059;28;20336;-57
2022/04/04 03:59:56;;;;;;;;;;;0.80;99.90;;;;;;5074137;28;19925;-57
2022/04/04 04:02:23;;;;;;;;;;;0.70;99.90;;;;;;5083998;28;19932;-54
2022/04/04 04:04:50;;;;;;;;;;;0.70;99.90;;;;;;5083793;28;19932;-56
2022/04/04 04:07:18;;;;;;;;;;;0.70;99.90;;;;;;5087568;28;19978;-57
2022/04/04 04:09:45;;;;;;;;;;;0.70;99.90;;;;;;5080991;28;20340;-57
2022/04/04 04:12:12;;;;;;;;;;;0.80;99.90;;;;;;5079952;28;20374;-57
2022/04/04 04:14:41;;;;;;;;;;;1.00;99.90;;;;;;5083797;28;19928;-57
2022/04/04 04:17:08;;;;;;;;;;;0.90;99.90;;;;;;5081163;28;19931;-56
2022/04/04 04:22:19;;;;;;;;;;;0.70;99.90;;;;;;5083451;28;19931;-56
2022/04/04 04:24:46;;;;;;;;;;;0.80;99.90;;;;;;5083991;28;20389;-57
2022/04/04 04:27:14;;;;;;;;;;;0.80;99.90;;;;;;5080027;28;20432;-57
2022/04/04 04:29:42;;;;;;;;;;;0.80;99.90;;;;;;5081022;28;19933;-57
2022/04/04 04:32:09;;;;;;;;;;;0.80;99.90;;;;;;5086026;28;19931;-55
2022/04/04 04:34:36;;;;;;;;;;;0.80;99.90;;;;;;5088735;28;19928;-55
2022/04/04 04:37:03;;;;;;;;;;;0.80;99.90;;;;;;5074662;28;19924;-55
2022/04/04 04:39:30;;;;;;;;;;;0.80;99.90;;;;;;5075898;28;19928;-56
2022/04/04 04:41:57;;;;;;;;;;;0.80;99.90;;;;;;5073520;28;20287;-55
2022/04/04 04:44:24;;;;;;;;;;;0.90;99.90;;;;;;5073819;28;19924;-55
2022/04/04 04:46:53;;;;;;;;;;;0.90;99.90;;;;;;5079323;28;19950;-54
2022/04/04 04:49:20;;;;;;;;;;;0.80;99.90;;;;;;5075828;28;20565;-55
2022/04/04 04:51:46;;;;;;;;;;;0.90;99.90;;;;;;5073890;28;19928;-55
2022/04/04 04:54:13;;;;;;;;;;;1.00;99.90;;;;;;5073462;28;19924;-55
2022/04/04 04:56:40;;;;;;;;;;;1.10;99.90;;;;;;5073123;28;19982;-55
2022/04/04 04:59:07;;;;;;;;;;;1.00;99.90;;;;;;5076895;28;19931;-54
2022/04/04 05:01:34;;;;;;;;;;;1.00;99.90;;;;;;5086673;28;19965;-55
2022/04/04 05:04:02;;;;;;;;;;;1.00;99.90;;;;;;5088009;28;19932;-55
2022/04/04 05:06:29;;;;;;;;;;;1.00;99.90;;;;;;5082753;28;19928;-55
2022/04/04 05:08:58;;;;;;;;;;;1.00;99.90;;;;;;5091745;28;19970;-55
2022/04/04 05:11:24;;;;;;;;;;;1.00;99.90;;;;;;5093063;28;20019;-55
2022/04/04 05:13:51;;;;;;;;;;;1.00;99.90;;;;;;5092595;28;19931;-58
2022/04/04 05:16:18;;;;;;;;;;;1.10;99.90;;;;;;5082057;28;20333;-55
2022/04/04 05:18:45;;;;;;;;;;;1.10;99.90;;;;;;5086643;28;19928;-55
2022/04/04 05:21:17;;;;;;;;;;;1.10;99.90;;;;;;5082822;28;19924;-55
2022/04/04 05:23:47;;;;;;;;;;;1.30;99.90;;;;;;5085572;28;19924;-57
2022/04/04 05:26:14;;;;;;;;;;;1.20;99.90;;;;;;5078756;28;19923;-54
2022/04/04 05:28:41;;;;;;;;;;;1.20;99.90;;;;;;5081058;28;20694;-55
2022/04/04 05:31:08;;;;;;;;;;;1.20;99.90;;;;;;5079176;28;20017;-55
2022/04/04 05:33:36;;;;;;;;;;;1.20;99.90;;;;;;5082622;28;19931;-54
2022/04/04 05:36:04;;;;;;;;;;;1.30;99.90;;;;;;5080376;28;19924;-55
2022/04/04 05:38:32;;;;;;;;;;;1.40;99.90;;;;;;5087592;28;20343;-55
2022/04/04 05:41:00;;;;;;;;;;;1.50;99.90;;;;;;5082558;28;19929;-56
2022/04/04 05:43:27;;;;;;;;;;;1.60;99.90;;;;;;5085141;28;19930;-56
2022/04/04 05:45:54;;;;;;;;;;;1.70;99.90;;;;;;5086383;28;19928;-55
2022/04/04 05:48:23;;;;;;;;;;;1.80;99.90;;;;;;5081802;28;20591;-55
2022/04/04 05:50:50;;;;;;;;;;;1.80;99.90;;;;;;5080618;28;19936;-56
2022/04/04 05:53:17;;;;;;;;;;;1.90;99.90;;;;;;5087915;28;20271;-55
2022/04/04 05:55:45;;;;;;;;;;;1.90;99.90;;;;;;5079868;28;20023;-55
2022/04/04 05:58:11;;;;;;;;;;;2.10;99.90;;;;;;5076928;28;20283;-55
2022/04/04 06:00:38;;;;;;;;;;;2.10;99.90;;;;;;5087500;28;19931;-55
2022/04/04 06:03:06;;;;;;;;;;;2.20;99.90;;;;;;5082919;28;20398;-54
2022/04/04 06:05:34;;;;;;;;;;;2.30;99.90;;;;;;5086679;28;19923;-55
2022/04/04 06:08:01;;;;;;;;;;;2.30;99.90;;;;;;5089409;28;19932;-55
2022/04/04 06:10:28;;;;;;;;;;;2.20;99.90;;;;;;5089971;28;20382;-55
2022/04/04 06:12:56;;;;;;;;;;;2.30;99.90;;;;;;5090861;28;19924;-55
2022/04/04 06:15:23;;;;;;;;;;;2.40;99.90;;;;;;5094407;28;19924;-55
2022/04/04 06:17:49;;;;;;;;;;;2.40;99.90;;;;;;5093302;28;19928;-55
2022/04/04 06:20:16;;;;;;;;;;;2.40;99.90;;;;;;5083930;28;19925;-55
2022/04/04 06:22:43;;;;;;;;;;;2.40;99.90;;;;;;5081051;28;19925;-55
2022/04/04 06:25:12;;;;;;;;;;;2.40;99.90;;;;;;5081985;28;19973;-56
2022/04/04 06:27:39;;;;;;;;;;;2.50;99.90;;;;;;5079923;28;19936;-55
2022/04/04 06:30:08;;;;;;;;;;;2.50;99.90;;;;;;5085234;28;19958;-54
2022/04/04 06:32:35;;;;;;;;;;;2.40;99.90;;;;;;5084241;28;19925;-54
2022/04/04 06:35:04;;;;;;;;;;;2.40;99.90;;;;;;5079812;28;20401;-54
2022/04/04 06:37:31;;;;;;;;;;;2.50;99.90;;;;;;5087521;28;19935;-55
2022/04/04 06:39:58;;;;;;;;;;;2.80;99.90;;;;;;5082132;28;19928;-55
2022/04/04 06:42:25;;;;;;;;;;;2.90;99.90;;;;;;5083022;28;19924;-55
2022/04/04 06:44:54;;;;;;;;;;;3.00;99.90;;;;;;5077011;28;19978;-56
2022/04/04 06:47:22;;;;;;;;;;;3.10;99.90;;;;;;5090022;28;19932;-55
2022/04/04 06:49:52;;;;;;;;;;;3.20;99.90;;;;;;5086461;28;19924;-55
2022/04/04 06:52:19;;;;;;;;;;;3.20;99.90;;;;;;5084268;28;20377;-55
2022/04/04 06:54:48;;;;;;;;;;;3.50;99.90;;;;;;5076481;28;19924;-55
2022/04/04 06:57:15;;;;;;;;;;;3.70;99.90;;;;;;5089725;28;19928;-55
2022/04/04 06:59:42;;;;;;;;;;;3.80;99.90;;;;;;5089933;28;20351;-55
2022/04/04 07:02:09;;;;;;;;;;;3.90;99.90;;;;;;5093147;28;19940;-55
2022/04/04 07:04:38;;;;;;;;;;;4.10;99.90;;;;;;5089218;28;19981;-55
2022/04/04 07:07:05;;;;;;;;;;;4.40;99.90;;;;;;5093355;28;19970;-55
2022/04/04 07:09:31;;;;;;;;;;;4.60;99.90;;;;;;5093455;28;19963;-55
2022/04/04 07:11:58;;;;;;;;;;;5.10;99.90;;;;;;5093060;28;19977;-55
2022/04/04 07:14:25;;;;;;;;;;;5.40;99.90;;;;;;5093486;28;19928;-56
2022/04/04 07:16:53;;;;;;;;;;;6.50;99.90;;;;;;5092650;28;19924;-56
2022/04/04 07:19:22;;;;;;;;;;;7.10;99.90;;;;;;5084516;28;20369;-56
2022/04/04 07:21:50;;;;;;;;;;;8.50;99.90;;;;;;5090885;28;19924;-55
2022/04/04 07:24:17;;;;;;;;;;;11.00;99.90;;;;;;5091185;28;19924;-55
2022/04/04 07:26:44;;;;;;;;;;;13.20;99.90;;;;;;5091159;28;19973;-56
2022/04/04 07:29:11;;;;;;;;;;;14.90;94.10;;;;;;5090913;28;20455;-56
2022/04/04 07:31:38;;;;;;;;;;;15.80;88.10;;;;;;5090642;28;20400;-56
2022/04/04 07:34:05;;;;;;;;;;;17.20;81.40;;;;;;5090659;28;20279;-56
2022/04/04 07:36:32;;;;;;;;;;;18.70;73.20;;;;;;5073938;28;20370;-56
2022/04/04 07:39:00;;;;;;;;;;;18.50;70.90;;;;;;5082949;28;20305;-56
2022/04/04 07:41:27;;;;;;;;;;;19.30;69.30;;;;;;5086918;28;19985;-57
2022/04/04 07:43:54;;;;;;;;;;;20.10;69.60;;;;;;5072556;28;19928;-56
2022/04/04 07:46:21;;;;;;;;;;;20.00;66.40;;;;;;5071962;28;20524;-56
2022/04/04 07:48:48;;;;;;;;;;;20.10;62.80;;;;;;5087743;28;19931;-56
2022/04/04 07:51:15;;;;;;;;;;;19.90;63.20;;;;;;5076192;28;19939;-56
2022/04/04 07:53:42;;;;;;;;;;;20.90;61.10;;;;;;5086002;28;19924;-56
2022/04/04 07:56:10;;;;;;;;;;;20.30;61.30;;;;;;5081695;28;20000;-56
2022/04/04 07:58:37;;;;;;;;;;;19.80;59.80;;;;;;5073410;28;19943;-56
2022/04/04 08:01:04;;;;;;;;;;;20.10;62.30;;;;;;5092153;28;19924;-57
2022/04/04 08:03:31;;;;;;;;;;;20.60;61.30;;;;;;5092531;28;19928;-56
2022/04/04 08:05:57;;;;;;;;;;;20.10;62.40;;;;;;5092064;28;20365;-56
2022/04/04 08:08:25;;;;;;;;;;;19.90;61.00;;;;;;5092181;28;19925;-57
2022/04/04 08:10:51;;;;;;;;;;;20.10;60.60;;;;;;5086492;28;19924;-56
2022/04/04 08:13:20;;;;;;;;;;;19.30;60.70;;;;;;5089693;28;19931;-57
2022/04/04 08:15:46;;;;;;;;;;;19.40;59.80;;;;;;5089164;28;20382;-56
2022/04/04 08:18:14;;;;;;;;;;;19.80;58.50;;;;;;5090287;28;19924;-57
2022/04/04 08:20:40;;;;;;;;;;;20.10;59.40;;;;;;5090287;28;19934;-57
2022/04/04 08:23:08;;;;;;;;;;;21.40;59.20;;;;;;5086922;28;19937;-57
2022/04/04 08:25:35;;;;;;;;;;;20.30;62.60;;;;;;5076411;28;19982;-56
2022/04/04 08:28:02;;;;;;;;;;;19.40;62.70;;;;;;5077856;28;20007;-56
2022/04/04 08:30:30;;;;;;;;;;;18.50;62.90;;;;;;5078130;28;19977;-56
2022/04/04 08:32:57;;;;;;;;;;;18.80;63.40;;;;;;5089293;28;19993;-57
2022/04/04 08:35:24;;;;;;;;;;;20.10;61.80;;;;;;5087049;28;20316;-57
2022/04/04 08:37:51;;;;;;;;;;;19.60;62.40;;;;;;5070757;28;19928;-58
2022/04/04 08:40:19;;;;;;;;;;;20.00;59.50;;;;;;5083487;28;19931;-58
2022/04/04 08:42:46;;;;;;;;;;;20.30;58.10;;;;;;5087394;28;19967;-57
2022/04/04 08:45:12;;;;;;;;;;;20.40;58.00;;;;;;5080898;28;19924;-57
2022/04/04 08:47:41;;;;;;;;;;;19.50;60.20;;;;;;5071630;28;19924;-57
2022/04/04 08:50:09;;;;;;;;;;;20.40;59.40;;;;;;5071404;28;19959;-57
2022/04/04 08:52:36;;;;;;;;;;;20.10;59.80;;;;;;5088790;28;19936;-57
2022/04/04 08:55:03;;;;;;;;;;;21.00;57.30;;;;;;5086667;28;19929;-57
2022/04/04 08:57:30;;;;;;;;;;;21.90;57.80;;;;;;5084492;28;19924;-57
2022/04/04 08:59:57;;;;;;;;;;;21.40;60.50;;;;;;5088919;28;19924;-57
2022/04/04 09:02:24;;;;;;;;;;;20.90;59.80;;;;;;5089714;28;19969;-57
2022/04/04 09:04:53;;;;;;;;;;;20.10;58.90;;;;;;5084827;28;20407;-58
2022/04/04 09:07:21;;;;;;;;;;;19.20;60.70;;;;;;5070801;28;20330;-57
2022/04/04 09:09:49;;;;;;;;;;;19.70;62.50;;;;;;5087659;28;19924;-58
2022/04/04 09:12:17;;;;;;;;;;;20.70;59.60;;;;;;5088029;28;19924;-58
2022/04/04 09:14:44;;;;;;;;;;;20.10;62.20;;;;;;5089639;28;19928;-57
2022/04/04 09:17:12;;;;;;;;;;;21.10;60.10;;;;;;5090078;28;19935;-57
2022/04/04 09:19:38;;;;;;;;;;;21.70;57.30;;;;;;5090515;28;19924;-58
2022/04/04 09:22:08;;;;;;;;;;;23.00;57.80;;;;;;5090691;28;19981;-58
2022/04/04 09:24:45;;;;;;;;;;;22.90;56.90;;;;;;5090637;28;19924;-58
2022/04/04 09:27:12;;;;;;;;;;;22.60;57.00;;;;;;5090766;28;19928;-57
2022/04/04 09:29:41;;;;;;;;;;;22.70;54.60;;;;;;5090714;28;20250;-57
2022/04/04 09:32:11;;;;;;;;;;;20.30;57.80;;;;;;5091588;28;19969;-57
2022/04/04 09:35:01;;;;;;;;;;;18.80;56.80;;;;;;5094835;28;19934;-57
2022/04/04 09:37:32;;;;;;;;;;;18.10;59.90;;;;;;5088649;28;20547;-57
2022/04/04 09:40:05;;;;;;;;;;;18.90;60.60;;;;;;5094946;28;19924;-58
2022/04/04 09:42:32;;;;;;;;;;;19.40;61.20;;;;;;5094733;28;19928;-58
2022/04/04 09:45:00;;;;;;;;;;;20.80;60.30;;;;;;5094588;28;20304;-58
2022/04/04 09:47:45;;;;;;;;;;;20.70;60.30;;;;;;5094217;28;19928;-57
2022/04/04 09:50:29;;;;;;;;;;;20.00;64.40;;;;;;5094521;28;19927;-57
2022/04/04 09:52:58;;;;;;;;;;;20.90;63.50;;;;;;5086992;28;19978;-57
2022/04/04 09:55:29;;;;;;;;;;;20.70;61.20;;;;;;5094588;28;19967;-57
2022/04/04 09:57:56;;;;;;;;;;;21.00;60.00;;;;;;5094449;28;19946;-56
2022/04/04 10:00:23;;;;;;;;;;;19.00;60.50;;;;;;5094008;28;20454;-56
2022/04/04 10:02:51;;;;;;;;;;;16.20;65.50;;;;;;5094198;28;20392;-56
2022/04/04 10:05:19;;;;;;;;;;;14.40;68.00;;;;;;5092339;28;19928;-56
2022/04/04 10:07:46;;;;;;;;;;;12.40;71.10;;;;;;5094142;28;19944;-56
2022/04/04 10:10:16;;;;;;;;;;;10.70;75.70;;;;;;5090684;28;19933;-56
2022/04/04 10:12:43;;;;;;;;;;;10.50;78.30;;;;;;5092979;28;19924;-56
2022/04/04 10:15:11;;;;;;;;;;;11.00;78.30;;;;;;5093501;28;20002;-56
2022/04/04 10:17:38;;;;;;;;;;;11.30;77.70;;;;;;5081994;28;19928;-56
2022/04/04 10:20:06;;;;;;;;;;;11.30;76.70;;;;;;5086204;28;19947;-56
2022/04/04 10:22:34;;;;;;;;;;;12.40;75.50;;;;;;5076885;28;19932;-56
2022/04/04 10:25:02;;;;;;;;;;;12.40;75.80;;;;;;5076697;28;19936;-56
2022/04/04 10:27:31;;;;;;;;;;;12.70;76.70;;;;;;5083466;28;20019;-56
2022/04/04 10:30:01;;;;;;;;;;;13.20;75.30;;;;;;5088430;28;19928;-57
2022/04/04 10:32:28;;;;;;;;;;;13.30;76.00;;;;;;5084984;28;20006;-56
2022/04/04 10:34:56;;;;;;;;;;;14.10;74.60;;;;;;5094182;28;19924;-57
2022/04/04 10:37:26;;;;;;;;;;;13.40;74.40;;;;;;5092768;28;20035;-57
2022/04/04 10:39:53;;;;;;;;;;;12.00;76.30;;;;;;5084742;28;20275;-56
2022/04/04 10:42:27;;;;;;;;;;;11.10;78.30;;;;;;5079860;28;19947;-56
2022/04/04 10:45:00;;;;;;;;;;;10.50;82.20;;;;;;5074091;28;20027;-56
2022/04/04 10:47:28;;;;;;;;;;;10.70;82.00;;;;;;5073733;28;19982;-56
2022/04/04 10:49:55;;;;;;;;;;;9.90;81.70;;;;;;5091961;28;19924;-56
2022/04/04 10:52:37;;;;;;;;;;;9.90;82.70;;;;;;5093782;28;19997;-56
2022/04/04 10:55:24;;;;;;;;;;;10.60;84.80;;;;;;5094103;28;19928;-56
2022/04/04 10:57:52;;;;;;;;;;;11.00;79.10;;;;;;5092323;28;19989;-56
2022/04/04 11:00:31;;;;;;;;;;;11.20;81.60;;;;;;5092631;28;19967;-56
2022/04/04 11:02:58;;;;;;;;;;;10.50;81.00;;;;;;5091661;28;19954;-56
2022/04/04 11:08:08;;;;;;;;;;;10.80;81.20;;;;;;5090627;28;19927;-55
2022/04/04 11:10:41;;;;;;;;;;;10.70;81.60;;;;;;5090126;28;19932;-56
2022/04/04 11:13:08;;;;;;;;;;;10.40;83.00;;;;;;5092727;28;20444;-56
2022/04/04 11:15:43;;;;;;;;;;;9.60;85.30;;;;;;5093552;28;19975;-56
2022/04/04 11:18:10;;;;;;;;;;;9.60;85.80;;;;;;5094228;28;20018;-55
2022/04/04 11:20:43;;;;;;;;;;;9.80;84.80;;;;;;5093497;28;19978;-55
2022/04/04 11:23:33;;;;;;;;;;;9.80;86.00;;;;;;5093406;28;19925;-56
2022/04/04 11:26:20;;;;;;;;;;;10.10;83.50;;;;;;5094757;28;20404;-56
2022/04/04 11:29:09;;;;;;;;;;;9.80;84.80;;;;;;5095024;28;19961;-56
2022/04/04 11:31:48;;;;;;;;;;;9.60;86.50;;;;;;5074227;28;19924;-56
2022/04/04 11:34:15;;;;;;;;;;;9.10;87.60;;;;;;5090009;28;20380;-56
2022/04/04 11:36:43;;;;;;;;;;;9.30;88.30;;;;;;5094223;28;19924;-56
2022/04/04 11:39:10;;;;;;;;;;;9.30;87.70;;;;;;5093570;28;19947;-56
2022/04/04 11:41:46;;;;;;;;;;;9.80;87.10;;;;;;5093739;28;19935;-56
2022/04/04 11:44:23;;;;;;;;;;;9.40;87.10;;;;;;5093807;28;19924;-56
2022/04/04 11:47:02;;;;;;;;;;;9.50;88.00;;;;;;5093749;28;19931;-56
2022/04/04 11:49:33;;;;;;;;;;;9.60;87.10;;;;;;5093756;28;19973;-56
2022/04/04 11:52:04;;;;;;;;;;;9.40;88.20;;;;;;5093473;28;19931;-57
2022/04/04 11:54:39;;;;;;;;;;;9.60;90.20;;;;;;5092825;28;20023;-56
2022/04/04 11:57:06;;;;;;;;;;;10.00;87.60;;;;;;5094113;28;20283;-56
2022/04/04 11:59:34;;;;;;;;;;;10.10;85.90;;;;;;5092490;28;19951;-56
2022/04/04 12:02:03;;;;;;;;;;;10.00;85.80;;;;;;5093369;28;20254;-56
2022/04/04 12:04:30;;;;;;;;;;;9.60;88.70;;;;;;5093461;28;19927;-56
2022/04/04 12:06:57;;;;;;;;;;;9.20;90.10;;;;;;5093777;28;19924;-56
2022/04/04 12:09:30;;;;;;;;;;;9.20;91.10;;;;;;5093445;28;19932;-56
2022/04/04 12:12:07;;;;;;;;;;;9.40;90.80;;;;;;5089825;28;20016;-56
2022/04/04 12:14:35;;;;;;;;;;;9.70;90.00;;;;;;5075165;28;20008;-56
2022/04/04 12:17:03;;;;;;;;;;;10.00;89.20;;;;;;5072511;28;19929;-57
2022/04/04 12:19:30;;;;;;;;;;;10.00;87.00;;;;;;5074289;28;20355;-57
2022/04/04 12:21:58;;;;;;;;;;;9.50;88.60;;;;;;5093372;28;19928;-56
2022/04/04 12:27:10;;;;;;;;;;;10.00;87.90;;;;;;5093475;28;19930;-56
2022/04/04 12:29:41;;;;;;;;;;;9.90;88.70;;;;;;5087435;28;20358;-57
2022/04/04 12:32:15;;;;;;;;;;;10.10;84.80;;;;;;5095748;28;19989;-57
2022/04/04 12:34:54;;;;;;;;;;;9.90;83.80;;;;;;5095864;28;19924;-57
2022/04/04 12:37:21;;;;;;;;;;;9.80;84.40;;;;;;5093898;28;19924;-57
2022/04/04 12:39:49;;;;;;;;;;;9.40;86.80;;;;;;5095966;28;20027;-56
2022/04/04 12:42:16;;;;;;;;;;;9.20;89.60;;;;;;5092051;28;19928;-56
2022/04/04 12:44:43;;;;;;;;;;;9.30;88.00;;;;;;5074916;28;19928;-56
2022/04/04 12:47:10;;;;;;;;;;;9.60;89.90;;;;;;5071694;28;20382;-56
2022/04/04 12:49:39;;;;;;;;;;;10.20;85.70;;;;;;5071879;28;19931;-57
2022/04/04 12:52:06;;;;;;;;;;;10.70;88.60;;;;;;5091124;28;20015;-57
2022/04/04 12:54:34;;;;;;;;;;;10.50;87.60;;;;;;5091228;28;19981;-57
2022/04/04 12:57:03;;;;;;;;;;;10.80;90.70;;;;;;5091209;28;20312;-56
2022/04/04 12:59:30;;;;;;;;;;;11.10;88.00;;;;;;5090544;28;20390;-57
2022/04/04 13:02:06;;;;;;;;;;;11.10;88.70;;;;;;5087894;28;19928;-56
2022/04/04 13:04:34;;;;;;;;;;;11.10;86.50;;;;;;5090114;28;20381;-57
2022/04/04 13:07:02;;;;;;;;;;;10.90;83.70;;;;;;5084656;28;19955;-56
2022/04/04 13:09:30;;;;;;;;;;;11.10;84.40;;;;;;5091100;28;19928;-56
2022/04/04 13:11:57;;;;;;;;;;;10.80;83.50;;;;;;5074454;28;19924;-56
2022/04/04 13:14:25;;;;;;;;;;;10.20;86.00;;;;;;5071009;28;20442;-56
2022/04/04 13:16:54;;;;;;;;;;;10.00;86.90;;;;;;5078813;28;20304;-56
2022/04/04 13:19:22;;;;;;;;;;;10.20;88.10;;;;;;5090170;28;19932;-56
2022/04/04 13:21:49;;;;;;;;;;;10.30;87.60;;;;;;5082697;28;19927;-56
2022/04/04 13:24:17;;;;;;;;;;;10.50;85.20;;;;;;5085848;28;20305;-55
2022/04/04 13:26:46;;;;;;;;;;;10.40;86.30;;;;;;5078997;28;19939;-57
2022/04/04 13:29:13;;;;;;;;;;;10.20;85.70;;;;;;5071127;28;19986;-56
2022/04/04 13:31:41;;;;;;;;;;;10.00;88.70;;;;;;5072126;28;19928;-56
2022/04/04 13:34:08;;;;;;;;;;;10.10;87.90;;;;;;5070667;28;19928;-56
2022/04/04 13:36:35;;;;;;;;;;;10.20;86.50;;;;;;5070999;28;19944;-57
2022/04/04 13:39:02;;;;;;;;;;;10.10;86.30;;;;;;5070645;28;19925;-56
2022/04/04 13:41:33;;;;;;;;;;;9.90;89.20;;;;;;5084789;28;19928;-57
2022/04/04 13:44:00;;;;;;;;;;;10.10;87.90;;;;;;5090899;28;19928;-57
2022/04/04 13:46:28;;;;;;;;;;;9.80;88.70;;;;;;5089921;28;19928;-56
2022/04/04 13:48:56;;;;;;;;;;;9.90;89.60;;;;;;5078518;28;20011;-56
2022/04/04 13:51:25;;;;;;;;;;;9.90;90.30;;;;;;5071791;28;19932;-55
2022/04/04 13:53:54;;;;;;;;;;;10.10;87.70;;;;;;5079568;28;20015;-56
2022/04/04 13:56:23;;;;;;;;;;;10.30;88.70;;;;;;5070917;28;19924;-56
2022/04/04 13:58:51;;;;;;;;;;;10.50;88.80;;;;;;5073109;28;19936;-56
2022/04/04 14:01:19;;;;;;;;;;;10.60;90.00;;;;;;5070184;28;20415;-56
2022/04/04 14:03:46;;;;;;;;;;;10.50;87.70;;;;;;5070611;28;19932;-56
2022/04/04 14:06:15;;;;;;;;;;;10.70;89.30;;;;;;5070462;28;19978;-56
2022/04/04 14:08:42;;;;;;;;;;;10.70;87.70;;;;;;5071351;28;19924;-55
2022/04/04 14:11:10;;;;;;;;;;;10.30;88.30;;;;;;5070222;28;19978;-56
2022/04/04 14:13:37;;;;;;;;;;;10.40;88.80;;;;;;5082226;28;19950;-56
2022/04/04 14:16:06;;;;;;;;;;;10.30;88.40;;;;;;5070347;28;19925;-56
2022/04/04 14:18:33;;;;;;;;;;;10.50;89.00;;;;;;5086277;28;19928;-56
2022/04/04 14:20:59;;;;;;;;;;;10.20;87.50;;;;;;5094813;28;19954;-55
2022/04/04 14:23:27;;;;;;;;;;;9.90;89.90;;;;;;5094216;28;19924;-55
2022/04/04 14:25:54;;;;;;;;;;;10.10;90.00;;;;;;5074745;28;19964;-56
2022/04/04 14:28:22;;;;;;;;;;;10.00;90.40;;;;;;5084037;28;20282;-56
2022/04/04 14:30:49;;;;;;;;;;;10.20;90.50;;;;;;5094506;28;19931;-56
2022/04/04 14:33:18;;;;;;;;;;;10.40;90.70;;;;;;5094453;28;20027;-56
2022/04/04 14:35:45;;;;;;;;;;;10.40;91.20;;;;;;5094301;28;19963;-56
2022/04/04 14:38:12;;;;;;;;;;;10.60;92.30;;;;;;5093838;28;20465;-56
2022/04/04 14:40:41;;;;;;;;;;;10.50;93.00;;;;;;5094295;28;19928;-56